createdAt,value
2022-11-25T00:16:39.229Z,57.13
2022-11-25T00:19:10.139Z,57.36
2022-11-25T00:21:47.235Z,57.17
2022-11-25T00:24:37.344Z,57.53
2022-11-25T00:27:21.082Z,57.71
2022-11-25T00:29:50.877Z,58.15
2022-11-25T00:32:18.211Z,57.39
2022-11-25T00:34:46.520Z,57.45
2022-11-25T00:37:13.583Z,57.83
2022-11-25T00:39:40.828Z,58.06
2022-11-25T00:42:27.234Z,57.64
2022-11-25T00:44:55.598Z,57.43
2022-11-25T00:47:22.948Z,57.45
2022-11-25T00:49:55.229Z,57.93
2022-11-25T00:52:26.542Z,58.60
2022-11-25T00:54:54.122Z,57.56
2022-11-25T00:57:22.476Z,57.39
2022-11-25T00:59:49.795Z,58.19
2022-11-25T01:02:17.569Z,58.25
2022-11-25T01:04:45.316Z,58.29
2022-11-25T01:07:15.672Z,58.40
2022-11-25T01:09:43.454Z,57.83
2022-11-25T01:12:10.546Z,57.70
2022-11-25T01:14:38.180Z,57.46
2022-11-25T01:17:05.137Z,57.71
2022-11-25T01:19:33.385Z,58.01
2022-11-25T01:22:00.353Z,58.37
2022-11-25T01:24:27.150Z,57.67
2022-11-25T01:26:56.163Z,57.81
2022-11-25T01:29:23.108Z,57.41
2022-11-25T01:31:50.691Z,57.09
2022-11-25T01:34:21.508Z,56.64
2022-11-25T01:36:48.936Z,57.16
2022-11-25T01:39:20.388Z,57.22
2022-11-25T01:41:47.925Z,57.54
2022-11-25T01:44:19.516Z,58.07
2022-11-25T01:47:05.168Z,58.91
2022-11-25T01:49:39.352Z,59.32
2022-11-25T01:52:09.207Z,59.15
2022-11-25T01:54:53.387Z,58.82
2022-11-25T01:57:26.581Z,58.27
2022-11-25T01:59:56.426Z,57.76
2022-11-25T02:02:23.872Z,58.26
2022-11-25T02:04:52.574Z,58.03
2022-11-25T02:07:28.750Z,57.82
2022-11-25T02:09:57.031Z,58.09
2022-11-25T02:12:25.224Z,57.78
2022-11-25T02:15:13.400Z,57.90
2022-11-25T02:17:40.523Z,57.65
2022-11-25T02:20:10.324Z,56.65
2022-11-25T02:22:47.931Z,57.04
2022-11-25T02:25:21.457Z,56.84
2022-11-25T02:27:52.216Z,57.49
2022-11-25T02:30:19.667Z,57.06
2022-11-25T02:32:48.349Z,56.91
2022-11-25T02:35:29.378Z,57.69
2022-11-25T02:37:59.198Z,58.01
2022-11-25T02:40:30.076Z,57.96
2022-11-25T02:42:59.453Z,57.62
2022-11-25T02:45:30.587Z,56.95
2022-11-25T02:47:59.793Z,57.32
2022-11-25T02:50:27.101Z,57.54
2022-11-25T02:52:54.097Z,57.62
2022-11-25T02:55:21.883Z,57.99
2022-11-25T02:57:48.706Z,57.65
2022-11-25T03:00:16.091Z,57.47
2022-11-25T03:02:43.657Z,57.10
2022-11-25T03:05:12.234Z,57.34
2022-11-25T03:07:39.675Z,56.79
2022-11-25T03:10:06.904Z,56.32
2022-11-25T03:12:34.924Z,56.19
2022-11-25T03:15:01.946Z,56.39
2022-11-25T03:17:30.727Z,56.78
2022-11-25T03:19:57.818Z,56.31
2022-11-25T03:22:26.276Z,55.94
2022-11-25T03:24:53.173Z,56.03
2022-11-25T03:27:20.472Z,56.47
2022-11-25T03:29:48.596Z,56.17
2022-11-25T03:32:15.673Z,56.49
2022-11-25T03:34:44.528Z,56.42
2022-11-25T03:37:13.297Z,56.17
2022-11-25T03:39:40.401Z,56.11
2022-11-25T03:42:08.184Z,56.20
2022-11-25T03:44:36.771Z,55.97
2022-11-25T03:47:04.192Z,56.49
2022-11-25T03:49:31.536Z,56.42
2022-11-25T03:51:58.715Z,55.92
2022-11-25T03:54:27.207Z,55.82
2022-11-25T03:57:13.611Z,55.83
2022-11-25T03:59:40.496Z,56.42
2022-11-25T04:02:08.467Z,55.90
2022-11-25T04:04:36.136Z,55.85
2022-11-25T04:07:03.400Z,55.94
2022-11-25T04:09:32.456Z,55.80
2022-11-25T04:12:19.645Z,55.71
2022-11-25T04:14:59.428Z,55.27
2022-11-25T04:17:26.297Z,55.04
2022-11-25T04:19:53.779Z,55.25
2022-11-25T04:22:20.839Z,54.70
2022-11-25T04:24:49.792Z,53.97
2022-11-25T04:27:22.765Z,54.17
2022-11-25T04:29:51.221Z,53.21
2022-11-25T04:32:21.041Z,53.66
2022-11-25T04:34:48.155Z,53.46
2022-11-25T04:37:15.695Z,53.42
2022-11-25T04:39:43.890Z,53.03
2022-11-25T04:42:33.202Z,52.81
2022-11-25T04:45:22.426Z,52.30
2022-11-25T04:47:53.808Z,52.58
2022-11-25T04:50:23.070Z,51.90
2022-11-25T04:53:03.873Z,51.72
2022-11-25T04:55:31.537Z,52.48
2022-11-25T04:58:02.549Z,52.31
2022-11-25T05:00:31.459Z,51.65
2022-11-25T05:02:58.414Z,51.78
2022-11-25T05:05:25.479Z,51.98
2022-11-25T05:07:53.007Z,52.01
2022-11-25T05:10:21.088Z,52.06
2022-11-25T05:12:51.143Z,52.66
2022-11-25T05:15:21.563Z,53.15
2022-11-25T05:17:49.522Z,52.78
2022-11-25T05:20:27.636Z,53.66
2022-11-25T05:22:55.367Z,53.33
2022-11-25T05:25:24.905Z,52.87
2022-11-25T05:28:07.924Z,53.45
2022-11-25T05:30:36.071Z,53.90
2022-11-25T05:33:03.975Z,53.74
2022-11-25T05:35:31.631Z,54.11
2022-11-25T05:38:01.446Z,54.66
2022-11-25T05:40:28.602Z,54.60
2022-11-25T05:43:03.133Z,54.83
2022-11-25T05:45:34.890Z,54.64
2022-11-25T05:48:04.911Z,54.67
2022-11-25T05:50:32.944Z,55.24
2022-11-25T05:53:24.500Z,54.98
2022-11-25T05:55:56.755Z,55.38
2022-11-25T05:58:44.198Z,55.26
2022-11-25T06:01:13.111Z,55.15
2022-11-25T06:03:40.847Z,55.50
2022-11-25T06:06:10.986Z,55.47
2022-11-25T06:08:39.373Z,55.63
2022-11-25T06:11:12.533Z,56.62
2022-11-25T06:13:39.817Z,56.23
2022-11-25T06:16:09.734Z,56.29
2022-11-25T06:18:40.140Z,56.33
2022-11-25T06:21:09.727Z,56.94
2022-11-25T06:23:38.490Z,56.55
2022-11-25T06:26:08.134Z,56.21
2022-11-25T06:28:38.264Z,56.73
2022-11-25T06:31:11.207Z,56.99
2022-11-25T06:33:50.142Z,57.64
2022-11-25T06:36:17.510Z,56.89
2022-11-25T06:38:48.936Z,57.17
2022-11-25T06:41:16.450Z,57.50
2022-11-25T06:43:45.010Z,57.21
2022-11-25T06:46:21.182Z,57.47
2022-11-25T06:48:55.648Z,56.93
2022-11-25T06:51:28.749Z,57.94
2022-11-25T06:53:55.786Z,57.71
2022-11-25T06:56:27.697Z,57.56
2022-11-25T06:58:57.222Z,57.82
2022-11-25T07:01:26.383Z,57.59
2022-11-25T07:04:03.009Z,57.94
2022-11-25T07:06:33.441Z,58.10
2022-11-25T07:09:01.083Z,57.89
2022-11-25T07:11:31.703Z,58.41
2022-11-25T07:14:12.474Z,57.89
2022-11-25T07:16:44.256Z,58.08
2022-11-25T07:19:13.785Z,58.43
2022-11-25T07:21:44.934Z,58.48
2022-11-25T07:24:19.546Z,58.46
2022-11-25T07:26:46.524Z,58.70
2022-11-25T07:29:50.087Z,58.25
2022-11-25T07:32:10.557Z,58.53
2022-11-25T07:34:39.690Z,58.57
2022-11-25T07:37:08.392Z,58.67
2022-11-25T07:39:39.188Z,58.40
2022-11-25T07:42:06.639Z,58.98
2022-11-25T07:44:34.212Z,58.26
2022-11-25T07:47:17.981Z,58.70
2022-11-25T07:49:44.880Z,57.89
2022-11-25T07:52:15.747Z,57.72
2022-11-25T07:54:44.188Z,57.28
2022-11-25T07:57:13.063Z,57.69
2022-11-25T07:59:42.639Z,56.66
2022-11-25T08:02:12.487Z,56.48
2022-11-25T08:04:39.850Z,57.17
2022-11-25T08:07:06.892Z,56.76
2022-11-25T08:09:34.875Z,56.91
2022-11-25T08:12:06.506Z,55.92
2022-11-25T08:14:35.759Z,56.22
2022-11-25T08:17:04.665Z,55.77
2022-11-25T08:19:32.792Z,55.88
2022-11-25T08:22:06.789Z,55.83
2022-11-25T08:24:34.522Z,55.58
2022-11-25T08:27:02.224Z,55.95
2022-11-25T08:29:31.787Z,55.91
2022-11-25T08:31:59.827Z,55.48
2022-11-25T08:34:29.442Z,55.33
2022-11-25T08:37:01.880Z,55.39
2022-11-25T08:42:46.863Z,55.66
2022-11-25T08:45:25.816Z,55.82
2022-11-25T08:47:52.868Z,56.35
2022-11-25T08:50:20.585Z,55.89
2022-11-25T08:52:47.702Z,56.02
2022-11-25T08:55:15.540Z,55.24
2022-11-25T08:57:44.210Z,55.25
2022-11-25T09:00:11.586Z,55.92
2022-11-25T09:02:40.460Z,56.18
2022-11-25T09:05:07.419Z,55.61
2022-11-25T09:07:35.886Z,55.55
2022-11-25T09:10:05.064Z,55.37
2022-11-25T09:12:35.192Z,54.66
2022-11-25T09:15:03.869Z,55.08
2022-11-25T09:17:33.677Z,55.15
2022-11-25T09:20:02.069Z,54.99
2022-11-25T09:22:30.629Z,54.35
2022-11-25T09:24:57.692Z,53.82
2022-11-25T09:27:25.661Z,53.81
2022-11-25T09:29:52.672Z,53.09
2022-11-25T09:32:19.622Z,53.43
2022-11-25T09:34:47.284Z,51.91
2022-11-25T09:37:15.483Z,51.02
2022-11-25T09:39:42.580Z,49.66
2022-11-25T09:42:48.717Z,50.34
2022-11-25T09:45:42.198Z,49.62
2022-11-25T09:48:13.583Z,49.19
2022-11-25T09:50:46.813Z,50.26
2022-11-25T09:53:32.320Z,50.34
2022-11-25T09:56:03.828Z,51.10
2022-11-25T09:58:35.953Z,50.86
2022-11-25T10:01:12.781Z,50.20
2022-11-25T10:03:43.683Z,49.66
2022-11-25T10:06:24.061Z,49.87
2022-11-25T10:08:56.637Z,50.11
2022-11-25T10:11:25.406Z,50.16
2022-11-25T10:17:44.982Z,49.83
2022-11-25T10:20:14.832Z,48.52
2022-11-25T10:22:49.594Z,48.53
2022-11-25T10:25:31.796Z,47.93
2022-11-25T10:28:00.770Z,48.04
2022-11-25T10:30:42.254Z,47.55
2022-11-25T10:33:22.037Z,48.44
2022-11-25T10:36:03.228Z,47.14
2022-11-25T10:38:43.765Z,48.00
2022-11-25T10:41:17.638Z,47.32
2022-11-25T10:43:50.624Z,47.96
2022-11-25T10:46:57.142Z,47.82
2022-11-25T10:49:36.403Z,46.43
2022-11-25T10:52:13.039Z,46.70
2022-11-25T10:54:41.193Z,46.69
2022-11-25T10:57:20.501Z,47.13
2022-11-25T10:59:59.162Z,46.25
2022-11-25T11:02:39.346Z,46.91
2022-11-25T11:05:11.255Z,46.14
2022-11-25T11:07:40.174Z,47.33
2022-11-25T11:10:24.607Z,46.38
2022-11-25T11:12:58.712Z,45.63
2022-11-25T11:15:30.418Z,45.94
2022-11-25T11:18:02.686Z,45.16
2022-11-25T11:20:37.740Z,44.69
2022-11-25T11:23:15.172Z,44.42
2022-11-25T11:28:45.196Z,45.24
2022-11-25T11:31:23.414Z,44.16
2022-11-25T11:34:12.417Z,44.72
2022-11-25T11:36:43.444Z,45.16
2022-11-25T11:39:36.480Z,45.22
2022-11-25T11:42:29.213Z,45.46
2022-11-25T11:45:16.424Z,44.92
2022-11-25T11:47:50.356Z,45.41
2022-11-25T11:50:18.143Z,44.79
2022-11-25T11:53:12.935Z,44.81
2022-11-25T11:56:05.589Z,45.04
2022-11-25T11:58:44.814Z,45.65
2022-11-25T12:01:30.739Z,45.20
2022-11-25T12:04:03.927Z,45.37
2022-11-25T12:06:37.171Z,46.30
2022-11-25T12:09:08.464Z,45.61
2022-11-25T12:11:38.008Z,46.06
2022-11-25T12:14:39.973Z,45.22
2022-11-25T12:17:45.933Z,45.17
2022-11-25T12:20:20.793Z,44.62
2022-11-25T12:22:53.852Z,45.28
2022-11-25T12:25:27.356Z,45.15
2022-11-25T12:28:01.319Z,45.58
2022-11-25T12:30:37.595Z,44.87
2022-11-25T12:33:21.279Z,43.98
2022-11-25T12:36:10.241Z,44.15
2022-11-25T12:38:43.178Z,43.78
2022-11-25T12:41:31.228Z,43.80
2022-11-25T12:43:59.273Z,43.90
2022-11-25T12:46:27.281Z,44.21
2022-11-25T12:48:57.506Z,43.78
2022-11-25T12:51:46.788Z,43.57
2022-11-25T12:54:19.921Z,43.73
2022-11-25T12:56:58.306Z,44.39
2022-11-25T12:59:50.169Z,44.56
2022-11-25T13:02:31.169Z,44.58
2022-11-25T13:05:38.892Z,44.92
2022-11-25T13:08:12.274Z,44.86
2022-11-25T13:10:46.119Z,44.71
2022-11-25T13:13:18.424Z,44.08
2022-11-25T13:15:53.118Z,44.55
2022-11-25T13:18:28.846Z,45.53
2022-11-25T13:21:06.361Z,45.57
2022-11-25T13:23:44.590Z,45.79
2022-11-25T13:26:34.511Z,45.72
2022-11-25T13:32:51.071Z,46.45
2022-11-25T13:35:28.596Z,46.19
2022-11-25T13:37:56.778Z,46.24
2022-11-25T13:40:26.828Z,46.24
2022-11-25T13:42:55.883Z,46.83
2022-11-25T13:45:34.861Z,46.54
2022-11-25T13:48:08.044Z,46.74
2022-11-25T13:50:55.265Z,47.06
2022-11-25T13:53:28.385Z,47.00
2022-11-25T13:56:14.505Z,47.26
2022-11-25T13:59:03.051Z,46.73
2022-11-25T14:01:32.436Z,46.67
2022-11-25T14:04:01.286Z,46.87
2022-11-25T14:06:32.662Z,46.20
2022-11-25T14:09:07.654Z,47.19
2022-11-25T14:11:44.820Z,47.12
2022-11-25T14:14:27.766Z,47.80
2022-11-25T14:17:00.129Z,47.69
2022-11-25T14:19:54.750Z,47.30
2022-11-25T14:22:27.651Z,47.82
2022-11-25T14:25:00.874Z,48.81
2022-11-25T14:27:30.429Z,49.60
2022-11-25T14:30:08.198Z,49.98
2022-11-25T14:32:51.616Z,51.43
2022-11-25T14:35:26.206Z,52.01
2022-11-25T14:38:25.713Z,52.40
2022-11-25T14:41:26.763Z,53.28
2022-11-25T14:44:00.585Z,53.59
2022-11-25T14:46:30.729Z,54.10
2022-11-25T14:48:59.029Z,54.51
2022-11-25T14:51:28.752Z,54.53
2022-11-25T14:53:58.003Z,54.90
2022-11-25T14:56:33.763Z,55.21
2022-11-25T14:59:01.899Z,55.83
2022-11-25T15:01:31.010Z,56.51
2022-11-25T15:04:05.892Z,57.23
2022-11-25T15:06:38.964Z,57.79
2022-11-25T15:09:26.487Z,57.50
2022-11-25T15:11:59.587Z,58.00
2022-11-25T15:14:34.911Z,58.14
2022-11-25T15:17:08.018Z,57.66
2022-11-25T15:19:41.361Z,58.18
2022-11-25T15:22:23.131Z,58.31
2022-11-25T15:24:56.159Z,58.54
2022-11-25T15:27:27.718Z,59.01
2022-11-25T15:29:58.721Z,59.11
2022-11-25T15:32:30.613Z,58.94
2022-11-25T15:35:25.904Z,59.53
2022-11-25T15:37:56.196Z,59.99
2022-11-25T15:40:40.887Z,60.42
2022-11-25T15:43:45.058Z,60.31
2022-11-25T15:46:16.846Z,61.00
2022-11-25T15:48:46.495Z,61.34
2022-11-25T15:51:30.943Z,60.81
2022-11-25T15:54:19.304Z,61.29
2022-11-25T15:57:07.123Z,60.82
2022-11-25T15:59:48.206Z,60.89
2022-11-25T16:02:34.036Z,61.70
2022-11-25T16:05:16.751Z,60.37
2022-11-25T16:07:50.185Z,60.18
2022-11-25T16:10:34.762Z,59.53
2022-11-25T16:13:22.007Z,60.22
2022-11-25T16:15:50.678Z,59.74
2022-11-25T16:18:43.088Z,59.57
2022-11-25T16:21:41.008Z,59.64
2022-11-25T16:24:20.234Z,60.47
2022-11-25T16:26:56.973Z,60.72
2022-11-25T16:29:30.472Z,60.25
2022-11-25T16:31:57.946Z,60.51
2022-11-25T16:34:27.122Z,59.94
2022-11-25T16:36:55.017Z,60.27
2022-11-25T16:39:30.684Z,60.39
2022-11-25T16:42:04.490Z,60.72
2022-11-25T16:44:33.295Z,60.58
2022-11-25T16:47:00.537Z,60.35
2022-11-25T16:49:31.037Z,60.66
2022-11-25T16:52:02.567Z,60.78
2022-11-25T16:54:31.523Z,60.31
2022-11-25T16:56:58.514Z,59.99
2022-11-25T16:59:30.656Z,60.47
2022-11-25T17:01:59.701Z,60.06
2022-11-25T17:04:29.356Z,60.72
2022-11-25T17:07:30.369Z,60.20
2022-11-25T17:09:44.870Z,59.89
2022-11-25T17:12:16.344Z,59.81
2022-11-25T17:14:43.958Z,59.62
2022-11-25T17:17:19.937Z,59.70
2022-11-25T17:19:51.753Z,59.71
2022-11-25T17:22:24.965Z,60.03
2022-11-25T17:24:52.030Z,60.13
2022-11-25T17:27:22.800Z,60.39
2022-11-25T17:29:50.359Z,60.23
2022-11-25T17:32:18.528Z,59.34
2022-11-25T17:34:45.702Z,59.50
2022-11-25T17:37:16.412Z,59.86
2022-11-25T17:42:32.032Z,60.18
2022-11-25T17:44:59.596Z,60.25
2022-11-25T17:47:26.685Z,61.06
2022-11-25T17:49:54.653Z,60.68
2022-11-25T17:52:21.750Z,61.06
2022-11-25T17:54:48.884Z,60.88
2022-11-25T17:57:17.649Z,60.54
2022-11-25T17:59:46.217Z,61.38
2022-11-25T18:02:19.021Z,60.24
2022-11-25T18:04:49.418Z,59.99
2022-11-25T18:07:18.959Z,59.38
2022-11-25T18:09:46.301Z,59.01
2022-11-25T18:12:18.676Z,58.91
2022-11-25T18:14:46.357Z,59.24
2022-11-25T18:17:16.832Z,59.20
2022-11-25T18:19:44.199Z,58.52
2022-11-25T18:22:16.353Z,58.94
2022-11-25T18:24:44.269Z,59.25
2022-11-25T18:27:20.663Z,58.73
2022-11-25T18:29:48.310Z,59.19
2022-11-25T18:32:16.344Z,59.15
2022-11-25T18:34:43.440Z,59.71
2022-11-25T18:37:22.979Z,59.14
2022-11-25T18:39:49.995Z,58.46
2022-11-25T18:42:25.842Z,59.39
2022-11-25T18:44:58.045Z,58.48
2022-11-25T18:47:26.938Z,57.90
2022-11-25T18:49:56.418Z,57.70
2022-11-25T18:52:27.021Z,57.40
2022-11-25T18:55:05.163Z,58.10
2022-11-25T18:57:45.947Z,57.76
2022-11-25T19:00:33.968Z,58.37
2022-11-25T19:03:02.645Z,57.89
2022-11-25T19:05:31.086Z,58.14
2022-11-25T19:07:59.702Z,57.88
2022-11-25T19:10:30.820Z,57.59
2022-11-25T19:16:14.345Z,58.02
2022-11-25T19:18:43.989Z,57.63
2022-11-25T19:21:18.196Z,57.75
2022-11-25T19:24:13.659Z,57.40
2022-11-25T19:26:44.912Z,57.65
2022-11-25T19:29:17.104Z,57.69
2022-11-25T19:31:46.232Z,58.27
2022-11-25T19:34:22.443Z,58.64
2022-11-25T19:36:55.743Z,58.36
2022-11-25T19:39:24.737Z,59.04
2022-11-25T19:41:54.848Z,58.53
2022-11-25T19:44:22.435Z,57.99
2022-11-25T19:47:41.628Z,58.52
2022-11-25T19:50:19.780Z,58.85
2022-11-25T19:53:02.251Z,57.76
2022-11-25T19:55:30.388Z,58.07
2022-11-25T19:58:00.016Z,58.17
2022-11-25T20:00:27.759Z,58.75
2022-11-25T20:02:58.224Z,58.76
2022-11-25T20:05:38.148Z,58.71
2022-11-25T20:08:06.125Z,58.89
2022-11-25T20:10:33.384Z,59.49
2022-11-25T20:13:02.441Z,60.24
2022-11-25T20:15:29.547Z,59.84
2022-11-25T20:17:59.215Z,59.70
2022-11-25T20:20:29.646Z,60.44
2022-11-25T20:26:21.792Z,60.21
2022-11-25T20:28:48.783Z,60.79
2022-11-25T20:31:16.736Z,60.11
2022-11-25T20:33:44.247Z,60.15
2022-11-25T20:36:14.241Z,60.43
2022-11-25T20:38:44.419Z,59.86
2022-11-25T20:41:12.458Z,60.20
2022-11-25T20:43:41.732Z,60.83
2022-11-25T20:46:19.955Z,60.17
2022-11-25T20:48:47.327Z,60.73
2022-11-25T20:51:20.915Z,60.52
2022-11-25T20:53:58.853Z,60.51
2022-11-25T20:56:26.625Z,60.73
2022-11-25T20:58:54.014Z,61.25
2022-11-25T21:01:21.411Z,60.29
2022-11-25T21:03:50.174Z,61.28
2022-11-25T21:06:17.119Z,60.79
2022-11-25T21:08:47.654Z,61.38
2022-11-25T21:11:34.233Z,62.06
2022-11-25T21:14:01.696Z,61.48
2022-11-25T21:16:28.995Z,61.14
2022-11-25T21:18:56.398Z,61.32
2022-11-25T21:21:32.183Z,61.70
2022-11-25T21:24:02.033Z,61.25
2022-11-25T21:26:29.748Z,60.69
2022-11-25T21:28:58.031Z,61.53
2022-11-25T21:31:26.020Z,61.50
2022-11-25T21:33:59.022Z,61.48
2022-11-25T21:36:28.636Z,61.79
2022-11-25T21:39:03.869Z,60.90
2022-11-25T21:41:31.613Z,60.45
2022-11-25T21:44:00.195Z,60.86
2022-11-25T21:46:29.166Z,60.67
2022-11-25T21:48:56.157Z,60.87
2022-11-25T21:51:26.242Z,61.18
2022-11-25T21:53:54.530Z,61.71
2022-11-25T21:56:22.707Z,61.22
2022-11-25T21:58:50.209Z,60.81
2022-11-25T22:01:17.676Z,60.25
2022-11-25T22:03:44.512Z,60.40
2022-11-25T22:06:23.898Z,60.63
2022-11-25T22:08:52.236Z,60.51
2022-11-25T22:11:22.481Z,60.66
2022-11-25T22:13:49.804Z,60.86
2022-11-25T22:16:23.726Z,60.91
2022-11-25T22:18:50.620Z,61.30
2022-11-25T22:21:17.713Z,61.61
2022-11-25T22:23:44.742Z,61.05
2022-11-25T22:26:16.321Z,60.83
2022-11-25T22:28:46.738Z,61.17
2022-11-25T22:31:15.723Z,61.36
2022-11-25T22:33:43.479Z,60.99
2022-11-25T22:36:24.840Z,60.33
2022-11-25T22:38:51.822Z,60.64
2022-11-25T22:41:19.349Z,61.09
2022-11-25T22:43:49.596Z,60.99
2022-11-25T22:46:17.197Z,61.07
2022-11-25T22:48:44.236Z,60.25
2022-11-25T22:51:25.405Z,61.08
2022-11-25T22:53:52.294Z,61.29
2022-11-25T22:56:19.608Z,60.82
2022-11-25T22:58:47.388Z,60.31
2022-11-25T23:01:15.606Z,61.47
2022-11-25T23:03:43.386Z,60.79
2022-11-25T23:06:12.109Z,61.72
2022-11-25T23:08:39.293Z,60.89
2022-11-25T23:11:06.457Z,60.89
2022-11-25T23:13:33.299Z,61.35
2022-11-25T23:16:31.977Z,60.64
2022-11-25T23:18:59.157Z,61.05
2022-11-25T23:21:29.304Z,61.41
2022-11-25T23:23:56.901Z,61.75
2022-11-25T23:26:23.880Z,62.13
2022-11-25T23:28:50.858Z,61.61
2022-11-25T23:31:17.883Z,62.41
2022-11-25T23:33:51.283Z,61.96
2022-11-25T23:36:22.361Z,62.37
2022-11-25T23:38:51.054Z,61.99
2022-11-25T23:41:20.130Z,63.21
2022-11-25T23:43:47.387Z,63.09
2022-11-25T23:46:15.116Z,62.20
2022-11-25T23:48:43.538Z,63.48
2022-11-25T23:51:10.888Z,62.90
2022-11-25T23:53:39.651Z,63.17
2022-11-25T23:56:06.692Z,64.86
2022-11-25T23:58:33.743Z,64.09
